This is the latest recevied weather packets stored in our database for station/object SQ9PDE-13. If no packets are shown the sender has not sent any weather packets the latest 10 day(s).
| Time | Temp. | Humidity | Pressure | Rain* | Wind** | Luminosity | Snow |
|---|---|---|---|---|---|---|---|
| 1777464603 | 8.89° C | 37% | 1026.9 hPa | - | - | - | - |
| 1777464303 | 8.89° C | 38% | 1027 hPa | - | - | - | - |
| 1777464007 | 8.33° C | 35% | 1027 hPa | - | - | - | - |
| 1777463702 | 8.89° C | 35% | 1027 hPa | - | - | - | - |
| 1777463401 | 7.78° C | 36% | 1027 hPa | - | - | - | - |
| 1777463101 | 8.33° C | 34% | 1026.9 hPa | - | - | - | - |
| 1777462800 | 8.89° C | 35% | 1026.7 hPa | - | - | - | - |
| 1777462500 | 8.33° C | 35% | 1026.9 hPa | - | - | - | - |
| 1777462199 | 8.89° C | 35% | 1026.8 hPa | - | - | - | - |
| 1777461899 | 9.44° C | 36% | 1026.7 hPa | - | - | - | - |
| 1777461598 | 8.33° C | 34% | 1026.9 hPa | - | - | - | - |
| 1777461298 | 8.89° C | 34% | 1026.8 hPa | - | - | - | - |
| 1777460997 | 8.33° C | 33% | 1026.9 hPa | - | - | - | - |
| 1777460697 | 8.33° C | 33% | 1026.8 hPa | - | - | - | - |
| 1777460396 | 9.44° C | 32% | 1026.5 hPa | - | - | - | - |
| 1777460095 | 9.44° C | 34% | 1026.5 hPa | - | - | - | - |
| 1777459795 | 8.33° C | 34% | 1026.8 hPa | - | - | - | - |
| 1777459494 | 9.44° C | 33% | 1026.5 hPa | - | - | - | - |
| 1777459194 | 8.33° C | 33% | 1026.9 hPa | - | - | - | - |
| 1777458893 | 8.33° C | 34% | 1026.8 hPa | - | - | - | - |
| 1777458593 | 8.89° C | 33% | 1026.8 hPa | - | - | - | - |
| 1777458292 | 10° C | 34% | 1026.5 hPa | - | - | - | - |
| 1777457992 | 9.44° C | 33% | 1026.6 hPa | - | - | - | - |
| 1777457691 | 10.56° C | 35% | 1026.4 hPa | - | - | - | - |
| 1777457391 | 10.56° C | 34% | 1026.4 hPa | - | - | - | - |
* Rain since midnight (hover to see other rain measurements)
** Current wind speed in m/s (hover to see current wind gust speed)